Richland, WA (99354)

11:49 AM PDT on March 28, 2015 (GMT -0700)
Richland | | Change Station
CLOSE
Current Station
Personal Weather Station
Location: Richland, WA
Elevation: 397 ft
Nearby Weather Stations
Active Advisory: Wind Advisory Active Notice: Record Report, Public Information Statement

Elev 397 ft 46.28 °N, 119.30 °W | Updated 4 minutes ago

Clear
Clear
61.0 °F
Feels Like 61.0 °F
N
15.0
Wind Variable Wind from WSW

Today
High -- | Low -- °F
--% Chance of Precip.
Yesterday
High -- | Low -- °F
Precip. -- in
6:44 AM 7:20 PM
Waxing Gibbous, 64% visible
Pressure 30.24 in
Visibility 10.0 miles
Clouds Clear
Dew Point 40 °F
Humidity 45%
Rainfall 0.00 in
Snow Depth Not available.
UV 5 out of 12
Pollen 8.10 out of 12
Air Quality Not available.
Flu Activity Not available.
METAR KPSC 281753Z 25025G38KT 10SM CLR 16/04 A3024 RMK AO2 PK WND 25038/1748 SLP240 T01560039 10156 20100 51027

More Conditions Fewer Conditions

Pressure 30.24 in
Visibility 10.0 miles
Clouds Clear
Dew Point 40 °F
Humidity 45%
Rainfall 0.00 in
Snow Depth Not available.
UV 5 out of 12
Pollen 8.10 out of 12
Air Quality Not available.
Flu Activity Not available.
METAR KPSC 281753Z 25025G38KT 10SM CLR 16/04 A3024 RMK AO2 PK WND 25038/1748 SLP240 T01560039 10156 20100 51027

More Conditions Fewer Conditions

10-Day Weather Forecast

Almanac

Astronomy

Mar. 28, 2015 Rise Set
Actual Time
Civil Twilight
Nautical Twilight
Astronomical Twilight
Moon
Length of Visible Light
Length of Day
Tomorrow will be .
, % of the Moon is Illuminated

Today's Extremes

State Highs State Lows

Community

WunderPhotos

Upload Photos

1,809,055 photos uploaded!

WunderBlogs® & News

Nearby

Air Quality

  Air Quality AQ Index Pollutant
Not available.

Snow Depth

Station Depth Elevation

Earthquake Activity

City Distance Mag. Time & Date
Minimum magnitude displayed is 2.5.

Coastal Water Temperatures

Place Temperature

Stations

Nearby Weather Stations

Station Location Temp. Windchill Dew Point Humidity Wind Precip. Elev Updated Type
                   
Wind Advisory
Statement as of 5:41 AM PDT on March 28, 2015

... Wind Advisory remains in effect until 2 PM PDT this
afternoon...

A Wind Advisory remains in effect until 2 PM PDT this afternoon.

* Timing: winds will continue through this morning into early
afternoon and then will decrease by late this afternoon.

* Winds: southwest to west winds 25 to 35 mph with gusts to
around 50 mph.

* Impacts: these wind speeds can toss around loose objects and
cause difficult driving conditions for high profile vehicles.

Precautionary/preparedness actions...

A Wind Advisory is issued when sustained winds are forecast
between 30 and 39 mph or gusts ranging from 45 to 57 mph. Winds
of these magnitudes can make driving difficult... especially for
high profile vehicles. Minor property damage may also occur. For
additional weather information... check our web site at
www.Weather.Gov/Pendleton.